Time;durP1;ratioP1;P1;durP2;ratioP2;P2;SDS_P1;SDS_P2;PMS_P1;PMS_P2;Temp;Humidity;BMP_temperature;BMP_pressure;BME280_temperature;BME280_humidity;BME280_pressure;Samples;Min_cycle;Max_cycle;Signal;HPM_P1;HPM_P2
2023/05/17 00:02:20;;;;;;;16.48;5.18;;;8.30;99.90;;;;;;6118277;23;20002;-81
2023/05/17 00:04:45;;;;;;;10.40;4.50;;;8.30;99.90;;;;;;6117488;23;20030;-82
2023/05/17 00:07:11;;;;;;;9.27;3.38;;;8.30;99.90;;;;;;6088212;23;20010;-83
2023/05/17 00:09:37;;;;;;;8.80;3.97;;;8.20;99.90;;;;;;6114640;23;20021;-81
2023/05/17 00:12:04;;;;;;;9.98;4.53;;;8.20;99.90;;;;;;6115708;23;20014;-81
2023/05/17 00:14:30;;;;;;;11.15;4.43;;;8.20;99.90;;;;;;6117284;23;20016;-81
2023/05/17 00:16:55;;;;;;;15.75;5.68;;;8.20;99.90;;;;;;6117545;23;20002;-82
2023/05/17 00:19:21;;;;;;;15.95;4.30;;;8.20;99.90;;;;;;6117689;23;20024;-85
2023/05/17 00:21:47;;;;;;;15.50;3.80;;;8.20;99.90;;;;;;6118011;23;20025;-81
2023/05/17 00:24:13;;;;;;;19.85;6.32;;;8.20;99.90;;;;;;6116027;23;20002;-82
2023/05/17 00:26:38;;;;;;;21.23;5.45;;;8.20;99.90;;;;;;6113830;23;20009;-82
2023/05/17 00:29:04;;;;;;;18.85;4.75;;;8.20;99.90;;;;;;6116716;23;20624;-81
2023/05/17 00:31:30;;;;;;;18.55;4.50;;;8.20;99.90;;;;;;6116152;23;20053;-82
2023/05/17 00:33:55;;;;;;;16.83;5.10;;;8.20;99.90;;;;;;6116642;23;20417;-82
2023/05/17 00:36:21;;;;;;;23.65;6.10;;;8.20;99.90;;;;;;6117460;23;20002;-83
2023/05/17 00:38:46;;;;;;;21.15;5.20;;;8.30;99.90;;;;;;6114063;23;20912;-82
2023/05/17 00:41:12;;;;;;;19.10;5.20;;;8.30;99.90;;;;;;6114652;23;20463;-81
2023/05/17 00:43:38;;;;;;;20.50;6.35;;;8.30;99.90;;;;;;6117191;23;20511;-82
2023/05/17 00:46:04;;;;;;;12.52;4.60;;;8.30;99.90;;;;;;6116661;23;19998;-82
2023/05/17 00:48:30;;;;;;;22.50;5.75;;;8.30;99.90;;;;;;6117283;23;20052;-82
2023/05/17 00:50:57;;;;;;;22.30;4.70;;;8.30;99.90;;;;;;6114874;23;20006;-81
2023/05/17 00:53:23;;;;;;;17.83;5.03;;;8.30;99.90;;;;;;6114180;23;20028;-81
2023/05/17 00:55:48;;;;;;;10.20;4.28;;;8.40;99.90;;;;;;6113455;23;20416;-83
2023/05/17 00:58:15;;;;;;;16.77;4.93;;;8.40;99.90;;;;;;6114549;23;20009;-81
2023/05/17 01:00:41;;;;;;;19.15;6.07;;;8.50;99.90;;;;;;6115957;23;20447;-81
2023/05/17 01:03:07;;;;;;;24.05;5.50;;;8.40;99.90;;;;;;6117941;23;20085;-82
2023/05/17 01:05:33;;;;;;;31.15;5.90;;;8.40;99.90;;;;;;6116277;23;20444;-84
2023/05/17 01:07:59;;;;;;;16.23;4.60;;;8.40;99.90;;;;;;6116971;23;20014;-82
2023/05/17 01:10:36;;;;;;;22.35;4.90;;;8.40;99.90;;;;;;6116167;23;20002;-82
2023/05/17 01:13:14;;;;;;;14.18;5.35;;;8.40;99.90;;;;;;6113490;23;20448;-82
2023/05/17 01:15:49;;;;;;;19.30;5.07;;;8.40;99.90;;;;;;6114307;23;20002;-83
2023/05/17 01:18:25;;;;;;;23.30;5.38;;;8.40;99.90;;;;;;6116747;23;20002;-81
2023/05/17 01:20:58;;;;;;;10.40;4.28;;;8.40;99.90;;;;;;6115443;23;20436;-85
2023/05/17 01:23:33;;;;;;;25.92;5.85;;;8.40;99.90;;;;;;6117265;23;20010;-83
2023/05/17 01:26:05;;;;;;;23.42;4.88;;;8.50;99.90;;;;;;6115843;23;20319;-82
2023/05/17 01:28:32;;;;;;;23.77;6.28;;;8.40;99.90;;;;;;6115533;23;20005;-83
2023/05/17 01:31:07;;;;;;;20.52;4.88;;;8.50;99.90;;;;;;6114141;23;20006;-83
2023/05/17 01:33:35;;;;;;;20.58;5.45;;;8.50;99.90;;;;;;6089075;23;20044;-86
2023/05/17 01:36:01;;;;;;;21.10;5.47;;;8.40;99.90;;;;;;6116780;23;19998;-84
2023/05/17 01:38:26;;;;;;;27.10;6.72;;;8.50;99.90;;;;;;6117342;23;20048;-82
2023/05/17 01:41:05;;;;;;;24.70;8.02;;;8.40;99.90;;;;;;6116372;23;20041;-88
2023/05/17 01:43:42;;;;;;;20.75;6.22;;;8.50;99.90;;;;;;6114434;23;20516;-83
2023/05/17 01:46:20;;;;;;;23.25;5.63;;;8.50;99.90;;;;;;6112958;23;19999;-82
2023/05/17 01:49:22;;;;;;;26.50;5.65;;;8.40;99.90;;;;;;6115782;23;20016;-82
2023/05/17 01:52:02;;;;;;;21.27;6.10;;;8.40;99.90;;;;;;6096449;23;20021;-82
2023/05/17 01:54:52;;;;;;;17.35;5.30;;;8.40;99.90;;;;;;6113758;23;20345;-84
2023/05/17 01:57:23;;;;;;;17.98;5.00;;;8.40;99.90;;;;;;6114738;23;20029;-81
2023/05/17 01:59:50;;;;;;;28.25;5.45;;;8.40;99.90;;;;;;6114821;23;20022;-82
2023/05/17 02:02:17;;;;;;;25.25;5.65;;;8.40;99.90;;;;;;6117037;23;20068;-87
2023/05/17 02:04:43;;;;;;;20.88;6.22;;;8.30;99.90;;;;;;6115824;23;20064;-82
2023/05/17 02:07:08;;;;;;;30.20;5.80;;;8.40;99.90;;;;;;6116279;23;20005;-83
2023/05/17 02:09:34;;;;;;;25.05;6.47;;;8.40;99.90;;;;;;6112549;23;20048;-83
2023/05/17 02:12:00;;;;;;;28.42;6.60;;;8.30;99.90;;;;;;6115055;23;20018;-83
2023/05/17 02:14:26;;;;;;;29.08;6.05;;;8.30;99.90;;;;;;6115691;23;20424;-84
2023/05/17 02:16:52;;;;;;;27.52;6.05;;;8.30;99.90;;;;;;6116809;23;20014;-83
2023/05/17 02:19:18;;;;;;;26.25;6.82;;;8.30;99.90;;;;;;6114403;23;20014;-82
2023/05/17 02:21:43;;;;;;;26.02;6.20;;;8.30;99.90;;;;;;6113126;23;20006;-81
2023/05/17 02:24:09;;;;;;;26.65;6.90;;;8.20;99.90;;;;;;6115030;23;20110;-82
2023/05/17 02:26:35;;;;;;;22.63;5.88;;;8.30;99.90;;;;;;6114798;23;20002;-83
2023/05/17 02:29:00;;;;;;;19.13;5.55;;;8.30;99.90;;;;;;6115811;23;20487;-81
2023/05/17 02:31:26;;;;;;;25.67;6.15;;;8.20;99.90;;;;;;6114411;23;19998;-82
2023/05/17 02:33:55;;;;;;;24.00;5.90;;;8.30;99.90;;;;;;6114344;23;20025;-83
2023/05/17 02:36:20;;;;;;;30.55;6.45;;;8.20;99.90;;;;;;6115729;23;20057;-80
2023/05/17 02:38:46;;;;;;;27.55;5.93;;;8.30;99.90;;;;;;6114730;23;20013;-82
2023/05/17 02:41:12;;;;;;;36.47;6.95;;;8.30;99.90;;;;;;6115909;23;20074;-82
2023/05/17 02:43:37;;;;;;;22.35;5.60;;;8.30;99.90;;;;;;6113260;23;20138;-82
2023/05/17 02:46:03;;;;;;;29.75;6.38;;;8.30;99.90;;;;;;6113861;23;20006;-80
2023/05/17 02:48:29;;;;;;;20.10;5.50;;;8.30;99.90;;;;;;6112352;23;20052;-83
2023/05/17 02:50:54;;;;;;;22.83;5.57;;;8.30;99.90;;;;;;6112861;23;20009;-83
2023/05/17 02:53:20;;;;;;;28.25;6.55;;;8.40;99.90;;;;;;6116910;23;20006;-82
2023/05/17 02:55:46;;;;;;;27.17;6.97;;;8.40;99.90;;;;;;6114216;23;20388;-82
2023/05/17 02:58:12;;;;;;;27.45;5.93;;;8.40;99.90;;;;;;6115244;23;20371;-82
2023/05/17 03:00:37;;;;;;;29.60;6.90;;;8.40;99.90;;;;;;6114591;23;20009;-82
2023/05/17 03:03:03;;;;;;;37.53;6.90;;;8.40;99.90;;;;;;6115914;23;20085;-82
2023/05/17 03:05:29;;;;;;;31.15;6.60;;;8.40;99.90;;;;;;6115057;23;20006;-82
2023/05/17 03:07:54;;;;;;;19.20;5.18;;;8.40;99.90;;;;;;6115058;23;20006;-83
2023/05/17 03:10:20;;;;;;;22.15;5.78;;;8.30;99.90;;;;;;6090238;23;20126;-82
2023/05/17 03:12:45;;;;;;;27.48;6.57;;;8.20;99.90;;;;;;6111951;23;19998;-82
2023/05/17 03:15:11;;;;;;;23.80;5.68;;;8.20;99.90;;;;;;6088902;23;20010;-83
2023/05/17 03:17:37;;;;;;;26.13;6.78;;;8.20;99.90;;;;;;6112438;23;20083;-85
2023/05/17 03:20:03;;;;;;;27.10;5.93;;;8.20;99.90;;;;;;6116921;23;20022;-82
2023/05/17 03:22:28;;;;;;;17.15;6.00;;;8.20;99.90;;;;;;6113085;23;20079;-84
2023/05/17 03:24:54;;;;;;;19.80;5.25;;;8.10;99.90;;;;;;6114226;23;20002;-83
2023/05/17 03:27:20;;;;;;;19.20;5.38;;;8.10;99.90;;;;;;6113946;23;20440;-82
2023/05/17 03:29:49;;;;;;;31.90;5.47;;;8.10;99.90;;;;;;6115284;23;20123;-82
2023/05/17 03:32:14;;;;;;;22.05;5.80;;;8.10;99.90;;;;;;6116355;23;19998;-82
2023/05/17 03:34:40;;;;;;;22.13;5.93;;;8.10;99.90;;;;;;6114568;23;20508;-83
2023/05/17 03:37:05;;;;;;;16.02;5.05;;;8.20;99.90;;;;;;6089651;23;20002;-82
2023/05/17 03:39:31;;;;;;;22.05;4.78;;;8.20;99.90;;;;;;6114919;23;20029;-82
2023/05/17 03:41:57;;;;;;;37.33;8.63;;;8.20;99.90;;;;;;6116208;23;20001;-82
2023/05/17 03:44:22;;;;;;;34.85;7.43;;;8.30;99.90;;;;;;6115977;23;20006;-82
2023/05/17 03:46:48;;;;;;;25.65;6.72;;;8.30;99.90;;;;;;6116174;23;20484;-83
2023/05/17 03:49:20;;;;;;;31.92;6.30;;;8.40;99.90;;;;;;6114210;23;20001;-83
2023/05/17 03:51:45;;;;;;;22.25;6.68;;;8.40;99.90;;;;;;6111852;23;20002;-82
2023/05/17 03:54:11;;;;;;;24.23;5.50;;;8.40;99.90;;;;;;6116431;23;20463;-83
2023/05/17 03:56:36;;;;;;;21.38;6.20;;;8.50;99.90;;;;;;6116445;23;20009;-81
2023/05/17 03:59:02;;;;;;;18.40;5.80;;;8.50;99.90;;;;;;6117502;23;20018;-81
2023/05/17 04:01:32;;;;;;;32.33;7.00;;;8.50;99.90;;;;;;6117244;23;20065;-84
2023/05/17 04:04:00;;;;;;;35.38;6.05;;;8.50;99.90;;;;;;6116160;23;20314;-83
2023/05/17 04:06:25;;;;;;;27.63;6.57;;;8.50;99.90;;;;;;6116378;23;20002;-81
2023/05/17 04:08:52;;;;;;;20.70;6.10;;;8.50;99.90;;;;;;6116520;23;20049;-83
2023/05/17 04:11:22;;;;;;;20.05;6.38;;;8.50;99.90;;;;;;6112886;23;20014;-82
2023/05/17 04:13:48;;;;;;;23.75;6.30;;;8.50;99.90;;;;;;6115806;23;20002;-82
2023/05/17 04:16:14;;;;;;;30.75;7.10;;;8.50;99.90;;;;;;6117628;23;20005;-82
2023/05/17 04:18:43;;;;;;;28.88;6.30;;;8.50;99.90;;;;;;6115140;23;20451;-82
2023/05/17 04:21:09;;;;;;;33.75;6.57;;;8.50;99.90;;;;;;6092046;23;20348;-83
2023/05/17 04:23:37;;;;;;;41.72;7.95;;;8.60;99.90;;;;;;6114418;23;20002;-82
2023/05/17 04:26:04;;;;;;;34.17;7.38;;;8.60;99.90;;;;;;6090137;23;20014;-83
2023/05/17 04:28:31;;;;;;;34.25;7.57;;;8.60;99.90;;;;;;6117233;23;20561;-82
2023/05/17 04:30:57;;;;;;;25.27;7.28;;;8.60;99.90;;;;;;6116759;23;20081;-82
2023/05/17 04:33:23;;;;;;;26.90;7.68;;;8.60;99.90;;;;;;6116501;23;20029;-81
2023/05/17 04:35:49;;;;;;;24.90;7.47;;;8.60;99.90;;;;;;6114221;23;20398;-83
2023/05/17 04:38:15;;;;;;;35.85;7.78;;;8.60;99.90;;;;;;6116614;23;20406;-81
2023/05/17 04:40:41;;;;;;;36.50;7.40;;;8.60;99.90;;;;;;6116131;23;20049;-81
2023/05/17 04:43:07;;;;;;;45.15;8.63;;;8.60;99.90;;;;;;6114906;23;20009;-82
2023/05/17 04:45:34;;;;;;;33.67;8.45;;;8.60;99.90;;;;;;6112481;23;20012;-85
2023/05/17 04:48:00;;;;;;;37.90;8.68;;;8.70;99.90;;;;;;6113552;23;20036;-80
2023/05/17 04:50:49;;;;;;;43.15;8.02;;;8.70;99.90;;;;;;6115111;23;20395;-82
2023/05/17 04:53:15;;;;;;;29.80;8.73;;;8.70;99.90;;;;;;6113626;23;20010;-81
2023/05/17 04:55:41;;;;;;;42.78;9.93;;;8.70;99.90;;;;;;6113261;23;20489;-82
2023/05/17 04:58:06;;;;;;;22.35;7.88;;;8.80;99.90;;;;;;6115866;23;20010;-81
2023/05/17 05:00:32;;;;;;;33.75;8.48;;;8.80;99.90;;;;;;6114867;23;20014;-82
2023/05/17 05:02:58;;;;;;;27.05;8.18;;;8.90;99.90;;;;;;6113842;23;20005;-82
2023/05/17 05:05:24;;;;;;;34.80;8.57;;;8.90;99.90;;;;;;6117687;23;20006;-83
2023/05/17 05:07:50;;;;;;;31.15;8.18;;;9.00;99.90;;;;;;6116069;23;20688;-83
2023/05/17 05:10:17;;;;;;;33.72;8.38;;;9.00;99.90;;;;;;6117165;23;20006;-84
2023/05/17 05:12:43;;;;;;;28.48;9.68;;;9.10;99.90;;;;;;6116647;23;20022;-82
2023/05/17 05:15:10;;;;;;;30.38;8.98;;;9.00;99.90;;;;;;6115527;23;20010;-83
2023/05/17 05:17:35;;;;;;;31.67;10.70;;;9.00;99.90;;;;;;6112462;23;19997;-83
2023/05/17 05:20:01;;;;;;;28.27;11.32;;;9.10;99.90;;;;;;6114686;23;20073;-81
2023/05/17 05:22:27;;;;;;;42.13;11.25;;;9.20;99.90;;;;;;6115381;23;20032;-84
2023/05/17 05:24:53;;;;;;;34.65;11.35;;;9.00;99.90;;;;;;6114805;23;20010;-86
2023/05/17 05:27:18;;;;;;;34.72;10.00;;;9.10;99.90;;;;;;6117067;23;20436;-82
2023/05/17 05:29:44;;;;;;;24.30;9.02;;;9.10;99.90;;;;;;6115180;23;20025;-82
2023/05/17 05:32:11;;;;;;;30.52;9.65;;;9.20;99.90;;;;;;6116321;23;20384;-81
2023/05/17 05:34:37;;;;;;;21.85;8.80;;;9.20;99.90;;;;;;6116863;23;20005;-82
2023/05/17 05:37:03;;;;;;;29.98;10.23;;;9.20;99.90;;;;;;6115328;23;20006;-82
2023/05/17 05:39:29;;;;;;;33.83;9.57;;;9.30;99.90;;;;;;6116785;23;20113;-82
2023/05/17 05:41:54;;;;;;;31.52;8.85;;;9.30;99.90;;;;;;6115377;23;20282;-83
2023/05/17 05:44:20;;;;;;;28.58;9.57;;;9.20;99.90;;;;;;6116116;23;20463;-83
2023/05/17 05:46:45;;;;;;;28.95;9.85;;;9.20;99.90;;;;;;6087166;23;20077;-82
2023/05/17 05:49:11;;;;;;;37.05;8.85;;;9.20;99.90;;;;;;6112808;23;20409;-82
2023/05/17 05:51:37;;;;;;;41.25;10.45;;;9.20;99.90;;;;;;6113983;23;20361;-81
2023/05/17 05:54:02;;;;;;;30.70;9.60;;;9.20;99.90;;;;;;6115358;23;20002;-83
2023/05/17 05:56:29;;;;;;;35.35;10.65;;;9.10;99.90;;;;;;6116583;23;20006;-84
2023/05/17 05:58:56;;;;;;;34.65;11.18;;;9.20;99.90;;;;;;6115772;23;20344;-83
2023/05/17 06:01:22;;;;;;;40.05;10.95;;;9.20;99.90;;;;;;6117271;23;20012;-82
2023/05/17 06:03:48;;;;;;;37.78;8.93;;;9.10;99.90;;;;;;6115501;23;20002;-81
2023/05/17 06:06:15;;;;;;;36.33;10.82;;;9.20;99.90;;;;;;6112547;23;20284;-83
2023/05/17 06:08:42;;;;;;;28.70;8.88;;;9.20;99.90;;;;;;6113948;23;20010;-83
2023/05/17 06:11:08;;;;;;;51.13;9.02;;;9.10;99.90;;;;;;6115726;23;20073;-83
2023/05/17 06:13:33;;;;;;;38.70;9.15;;;9.20;99.90;;;;;;6115624;23;20009;-82
2023/05/17 06:15:59;;;;;;;29.17;9.15;;;9.10;99.90;;;;;;6117208;23;20002;-80
2023/05/17 06:18:24;;;;;;;28.90;9.85;;;9.10;99.90;;;;;;6117061;23;20001;-82
2023/05/17 06:20:50;;;;;;;32.95;9.50;;;9.10;99.90;;;;;;6115826;23;20141;-82
2023/05/17 06:23:16;;;;;;;37.35;9.27;;;9.10;99.90;;;;;;6115107;23;20002;-82
2023/05/17 06:25:41;;;;;;;34.10;9.13;;;9.10;99.90;;;;;;6113590;23;20081;-85
2023/05/17 06:28:08;;;;;;;39.80;11.45;;;9.10;99.90;;;;;;6111777;23;20385;-84
2023/05/17 06:30:34;;;;;;;34.30;7.75;;;9.10;99.90;;;;;;6114056;23;20016;-82
2023/05/17 06:33:00;;;;;;;39.13;7.28;;;9.10;99.90;;;;;;6115891;23;19998;-81
2023/05/17 06:35:25;;;;;;;35.22;7.13;;;9.10;99.90;;;;;;6115258;23;20057;-81
2023/05/17 06:37:51;;;;;;;34.97;8.00;;;9.10;99.90;;;;;;6115778;23;19997;-81
2023/05/17 06:40:16;;;;;;;35.75;7.22;;;9.00;99.90;;;;;;6113953;23;20010;-80
2023/05/17 06:42:42;;;;;;;25.10;6.82;;;9.00;99.90;;;;;;6113921;23;20505;-82
2023/05/17 06:45:08;;;;;;;39.65;7.50;;;9.00;99.90;;;;;;6113171;23;20006;-83
2023/05/17 06:47:34;;;;;;;33.17;5.80;;;9.00;99.90;;;;;;6112572;23;20009;-81
2023/05/17 06:50:00;;;;;;;44.28;7.70;;;9.00;99.90;;;;;;6113015;23;20002;-81
2023/05/17 06:52:26;;;;;;;39.47;7.38;;;9.00;99.90;;;;;;6116720;23;20320;-80
2023/05/17 06:54:52;;;;;;;27.60;5.68;;;9.00;99.90;;;;;;6114031;23;20227;-79
2023/05/17 06:57:17;;;;;;;44.78;5.43;;;9.10;99.90;;;;;;6115088;23;20428;-84
2023/05/17 06:59:43;;;;;;;34.35;4.65;;;9.20;99.90;;;;;;6115129;23;20045;-82
2023/05/17 07:02:08;;;;;;;43.60;6.97;;;9.30;99.90;;;;;;6112144;23;19998;-81
2023/05/17 07:04:34;;;;;;;26.50;5.47;;;9.40;99.90;;;;;;6088455;23;20002;-85
2023/05/17 07:07:00;;;;;;;23.13;5.88;;;9.40;99.90;;;;;;6114283;23;20428;-80
2023/05/17 07:09:25;;;;;;;34.92;6.45;;;9.40;99.90;;;;;;6113762;23;20010;-83
2023/05/17 07:11:51;;;;;;;26.92;7.43;;;9.40;99.90;;;;;;6114131;23;20041;-82
2023/05/17 07:14:16;;;;;;;31.70;7.03;;;9.40;99.90;;;;;;6116193;23;20017;-81
2023/05/17 07:16:42;;;;;;;28.55;5.88;;;9.40;99.90;;;;;;6114122;23;20137;-81
2023/05/17 07:19:08;;;;;;;32.17;5.90;;;9.40;99.90;;;;;;6086724;23;20448;-86
2023/05/17 07:21:33;;;;;;;29.38;5.72;;;9.30;99.90;;;;;;6113140;23;20002;-81
2023/05/17 07:23:59;;;;;;;39.83;5.57;;;9.20;99.90;;;;;;6114603;23;20024;-80
2023/05/17 07:26:25;;;;;;;24.27;6.32;;;9.30;99.90;;;;;;6115766;23;19999;-80
2023/05/17 07:28:50;;;;;;;36.30;5.30;;;9.40;99.90;;;;;;6113746;23;20408;-81
2023/05/17 07:31:17;;;;;;;20.95;5.78;;;9.50;99.90;;;;;;6114092;23;20042;-86
2023/05/17 07:33:42;;;;;;;26.05;5.18;;;9.50;99.90;;;;;;6113155;23;20010;-82
2023/05/17 07:36:08;;;;;;;35.63;5.22;;;9.50;99.90;;;;;;6114610;23;20096;-81
2023/05/17 07:38:36;;;;;;;25.98;5.40;;;9.40;99.90;;;;;;6115242;23;20006;-81
2023/05/17 07:41:02;;;;;;;28.55;5.05;;;9.40;99.90;;;;;;6115321;23;20010;-81
2023/05/17 07:43:29;;;;;;;32.85;5.25;;;9.40;99.90;;;;;;6114356;23;20032;-83
2023/05/17 07:45:54;;;;;;;26.23;4.85;;;9.40;99.90;;;;;;6112097;23;20077;-81
2023/05/17 07:48:20;;;;;;;26.65;4.30;;;9.50;99.90;;;;;;6113980;23;20090;-80
2023/05/17 07:50:46;;;;;;;33.72;6.30;;;9.60;99.90;;;;;;6114152;23;20720;-81
2023/05/17 07:53:12;;;;;;;27.50;5.93;;;9.80;99.90;;;;;;6114758;23;20030;-81
2023/05/17 07:55:37;;;;;;;29.73;4.25;;;9.90;99.90;;;;;;6115951;23;20006;-81
2023/05/17 07:58:03;;;;;;;27.13;5.55;;;9.90;99.90;;;;;;6115872;23;20417;-82
2023/05/17 08:00:29;;;;;;;29.23;5.18;;;10.00;99.90;;;;;;6114314;23;20332;-83
2023/05/17 08:02:57;;;;;;;22.13;4.70;;;10.10;99.90;;;;;;6113853;23;20089;-80
2023/05/17 08:05:22;;;;;;;31.23;4.22;;;10.00;99.90;;;;;;6115278;23;19998;-81
2023/05/17 08:07:48;;;;;;;18.33;4.82;;;10.00;99.90;;;;;;6114513;23;19993;-80
2023/05/17 08:10:13;;;;;;;26.42;5.95;;;9.90;99.90;;;;;;6115731;23;20006;-80
2023/05/17 08:12:39;;;;;;;27.38;5.10;;;9.80;99.90;;;;;;6115406;23;20006;-82
2023/05/17 08:15:05;;;;;;;31.88;5.15;;;9.70;99.90;;;;;;6111597;23;20020;-81
2023/05/17 08:17:31;;;;;;;25.90;5.35;;;9.60;99.90;;;;;;6114271;23;19998;-81
2023/05/17 08:19:56;;;;;;;26.30;4.82;;;9.70;99.90;;;;;;6112431;23;20343;-80
2023/05/17 08:22:22;;;;;;;27.95;4.85;;;9.80;99.90;;;;;;6115009;23;20006;-80
2023/05/17 08:24:47;;;;;;;15.38;4.00;;;9.90;99.90;;;;;;6117210;23;20010;-80
2023/05/17 08:27:13;;;;;;;20.40;4.13;;;9.90;99.90;;;;;;6115511;23;20002;-80
2023/05/17 08:29:39;;;;;;;28.30;4.18;;;10.00;99.90;;;;;;6114534;23;20476;-82
2023/05/17 08:32:05;;;;;;;27.67;4.22;;;10.00;99.90;;;;;;6112635;23;20416;-80
2023/05/17 08:34:30;;;;;;;33.17;4.20;;;10.00;99.90;;;;;;6084856;23;20057;-81
2023/05/17 08:36:56;;;;;;;30.52;4.85;;;9.90;99.90;;;;;;6117585;23;20373;-81
2023/05/17 08:39:22;;;;;;;20.30;3.75;;;9.90;99.90;;;;;;6117510;23;20025;-80
2023/05/17 08:41:48;;;;;;;13.57;3.75;;;9.90;99.90;;;;;;6115778;23;20004;-80
2023/05/17 08:44:17;;;;;;;12.90;3.33;;;9.90;99.90;;;;;;6118134;23;20261;-80
2023/05/17 08:46:43;;;;;;;25.58;4.10;;;9.90;99.90;;;;;;6114394;23;20021;-82
2023/05/17 08:49:13;;;;;;;26.83;4.88;;;9.90;99.90;;;;;;6114331;23;20046;-81
2023/05/17 08:51:41;;;;;;;26.73;4.22;;;10.00;99.90;;;;;;6118104;23;20006;-81
2023/05/17 08:54:07;;;;;;;25.52;4.88;;;10.10;99.90;;;;;;6117715;23;20013;-79
2023/05/17 08:56:35;;;;;;;31.77;5.10;;;10.10;99.90;;;;;;6116122;23;20353;-82
2023/05/17 08:59:04;;;;;;;24.75;4.97;;;10.10;99.90;;;;;;6091496;23;20436;-82
2023/05/17 09:01:30;;;;;;;21.38;3.78;;;10.10;99.90;;;;;;6117019;23;20053;-82
2023/05/17 09:03:55;;;;;;;28.45;4.57;;;10.10;99.90;;;;;;6116546;23;20006;-81
2023/05/17 09:06:22;;;;;;;20.65;3.30;;;10.20;99.90;;;;;;6114960;23;20396;-80
2023/05/17 09:08:57;;;;;;;17.27;3.60;;;10.30;99.90;;;;;;6115486;23;19998;-79
2023/05/17 09:11:27;;;;;;;35.13;5.38;;;10.40;99.90;;;;;;6114488;23;19998;-83
2023/05/17 09:13:53;;;;;;;23.08;3.28;;;10.60;99.90;;;;;;6117864;23;20491;-81
2023/05/17 09:16:20;;;;;;;28.58;3.55;;;10.70;99.90;;;;;;6115074;23;20005;-78
2023/05/17 09:18:54;;;;;;;26.55;3.72;;;10.60;99.90;;;;;;6114682;23;20006;-79
2023/05/17 09:21:20;;;;;;;21.00;3.47;;;10.50;99.90;;;;;;6115720;23;20008;-82
2023/05/17 09:23:46;;;;;;;18.90;3.63;;;10.50;99.90;;;;;;6113861;23;20040;-80
2023/05/17 09:26:12;;;;;;;21.90;4.85;;;10.60;99.90;;;;;;6089906;23;20002;-80
2023/05/17 09:28:40;;;;;;;17.48;3.72;;;10.60;99.90;;;;;;6116412;23;20010;-81
2023/05/17 09:31:12;;;;;;;21.13;3.55;;;10.70;99.90;;;;;;6113942;23;20002;-83
2023/05/17 09:33:48;;;;;;;21.25;3.58;;;10.70;99.90;;;;;;6113261;23;20442;-81
2023/05/17 09:36:23;;;;;;;19.58;3.50;;;10.60;99.90;;;;;;6115259;23;20025;-80
2023/05/17 09:39:00;;;;;;;17.60;3.75;;;10.50;99.90;;;;;;6117394;23;20219;-81
2023/05/17 09:41:28;;;;;;;29.08;4.47;;;10.40;99.90;;;;;;6117155;23;20029;-80
2023/05/17 09:43:58;;;;;;;16.42;3.13;;;10.40;99.90;;;;;;6117531;23;20022;-81
2023/05/17 09:46:24;;;;;;;12.77;3.00;;;10.40;99.90;;;;;;6114389;23;20025;-83
2023/05/17 09:48:53;;;;;;;27.15;4.63;;;10.50;99.90;;;;;;6118100;23;20348;-80
2023/05/17 09:51:30;;;;;;;26.70;3.15;;;10.60;99.90;;;;;;6118394;23;20069;-81
2023/05/17 09:53:58;;;;;;;16.30;3.15;;;10.70;99.90;;;;;;6114924;23;20061;-81
2023/05/17 09:56:30;;;;;;;12.60;2.85;;;10.70;99.90;;;;;;6111347;23;20029;-79
2023/05/17 09:58:56;;;;;;;16.40;3.35;;;10.80;99.90;;;;;;6114507;23;20447;-80
2023/05/17 10:01:30;;;;;;;17.00;2.78;;;10.90;99.90;;;;;;6118124;23;20029;-86
2023/05/17 10:04:01;;;;;;;24.48;3.38;;;11.00;99.90;;;;;;6117128;23;20006;-80
2023/05/17 10:06:32;;;;;;;24.08;3.67;;;11.10;99.90;;;;;;6115811;23;20002;-80
2023/05/17 10:09:01;;;;;;;28.50;4.30;;;11.10;99.90;;;;;;6113412;23;20428;-82
2023/05/17 10:11:33;;;;;;;12.70;2.42;;;11.00;99.90;;;;;;6115369;23;20018;-80
2023/05/17 10:14:07;;;;;;;21.63;3.20;;;10.90;99.90;;;;;;6118830;23;20005;-80
2023/05/17 10:16:33;;;;;;;21.33;3.75;;;11.00;99.90;;;;;;6114632;23;20443;-83
2023/05/17 10:19:02;;;;;;;20.88;3.88;;;11.10;99.90;;;;;;6114954;23;20014;-81
2023/05/17 10:21:31;;;;;;;19.88;4.10;;;11.30;99.90;;;;;;6114989;23;20441;-86
2023/05/17 10:24:18;;;;;;;22.50;3.85;;;11.40;99.90;;;;;;6116448;23;20006;-81
2023/05/17 10:26:44;;;;;;;20.35;3.50;;;11.30;99.90;;;;;;6116920;23;19998;-80
2023/05/17 10:29:10;;;;;;;18.58;3.30;;;11.20;99.90;;;;;;6116414;23;20008;-81
2023/05/17 10:31:37;;;;;;;23.63;4.57;;;11.10;99.90;;;;;;6088778;23;20012;-81
2023/05/17 10:34:05;;;;;;;27.17;3.35;;;11.10;99.90;;;;;;6113351;23;20009;-81
2023/05/17 10:36:31;;;;;;;11.60;2.33;;;11.10;99.90;;;;;;6115889;23;20002;-80
2023/05/17 10:38:58;;;;;;;32.80;2.72;;;11.20;99.90;;;;;;6114112;23;20010;-80
2023/05/17 10:41:27;;;;;;;14.35;3.33;;;11.20;99.90;;;;;;6117580;23;20080;-84
2023/05/17 10:43:54;;;;;;;14.60;3.05;;;11.30;99.90;;;;;;6115386;23;20006;-80
2023/05/17 10:46:22;;;;;;;26.05;4.05;;;11.30;99.90;;;;;;6115346;23;20001;-80
2023/05/17 10:48:52;;;;;;;15.50;2.97;;;11.20;99.90;;;;;;6114971;23;20010;-81
2023/05/17 10:51:30;;;;;;;15.82;3.30;;;11.30;99.90;;;;;;6116811;23;20396;-79
2023/05/17 10:54:05;;;;;;;26.08;4.20;;;11.30;99.90;;;;;;6117742;23;20077;-81
2023/05/17 10:56:31;;;;;;;26.38;3.38;;;11.40;99.90;;;;;;6115074;23;20329;-83
2023/05/17 10:59:22;;;;;;;19.27;2.92;;;11.40;99.90;;;;;;6113589;23;20126;-85
2023/05/17 11:02:04;;;;;;;14.05;3.10;;;11.60;99.90;;;;;;6114513;23;20058;-80
2023/05/17 11:04:51;;;;;;;14.55;3.53;;;11.70;99.90;;;;;;6115421;23;20049;-80
2023/05/17 11:07:16;;;;;;;22.98;3.67;;;11.80;99.90;;;;;;6114006;23;20014;-80
2023/05/17 11:10:06;;;;;;;9.60;2.45;;;11.70;99.90;;;;;;6116660;23;20159;-80
2023/05/17 11:12:36;;;;;;;22.20;4.78;;;11.70;99.90;;;;;;6106103;23;20045;-82
2023/05/17 11:15:07;;;;;;;19.88;3.67;;;11.70;99.90;;;;;;6089018;23;20016;-79
2023/05/17 11:17:45;;;;;;;15.75;3.08;;;11.60;99.90;;;;;;6088423;23;20010;-84
2023/05/17 11:20:13;;;;;;;24.20;3.75;;;11.60;99.90;;;;;;6111368;23;20024;-80
2023/05/17 11:23:15;;;;;;;17.38;3.25;;;11.50;99.90;;;;;;6110534;23;20016;-80
2023/05/17 11:25:41;;;;;;;29.88;4.82;;;11.40;99.90;;;;;;6112400;23;20307;-78
2023/05/17 11:28:17;;;;;;;16.08;3.00;;;11.40;99.90;;;;;;6115596;23;20425;-79
2023/05/17 11:30:49;;;;;;;30.65;4.75;;;11.40;99.90;;;;;;6114763;23;20425;-79
2023/05/17 11:33:15;;;;;;;23.30;4.40;;;11.40;99.90;;;;;;6113796;23;20045;-79
2023/05/17 11:35:41;;;;;;;27.55;5.00;;;11.40;99.90;;;;;;6113973;23;20006;-84
2023/05/17 11:38:21;;;;;;;22.80;4.30;;;11.50;99.90;;;;;;6117110;23;19998;-88
2023/05/17 11:40:48;;;;;;;30.02;4.80;;;11.60;99.90;;;;;;6114047;23;20335;-80
2023/05/17 11:43:15;;;;;;;21.73;4.40;;;11.60;99.90;;;;;;6113869;23;20005;-85
2023/05/17 11:45:43;;;;;;;23.00;3.70;;;11.70;99.90;;;;;;6114959;23;20025;-79
2023/05/17 11:48:13;;;;;;;18.15;3.15;;;11.60;99.90;;;;;;6113847;23;20006;-82
2023/05/17 11:50:42;;;;;;;21.63;4.07;;;11.50;99.90;;;;;;6116394;23;20052;-80
2023/05/17 11:53:08;;;;;;;11.52;3.28;;;11.50;99.90;;;;;;6116557;23;20029;-79
2023/05/17 11:55:41;;;;;;;17.23;3.30;;;11.60;99.90;;;;;;6114838;23;20356;-80
2023/05/17 11:58:08;;;;;;;15.93;4.00;;;11.60;99.90;;;;;;6117320;23;20017;-79
2023/05/17 12:00:40;;;;;;;16.58;4.07;;;11.60;99.90;;;;;;6115460;23;20045;-80
2023/05/17 12:03:25;;;;;;;28.95;3.10;;;11.70;99.90;;;;;;6115130;23;20365;-79
2023/05/17 12:06:12;;;;;;;18.83;3.47;;;11.80;99.90;;;;;;6114768;23;20429;-81
2023/05/17 12:08:42;;;;;;;17.00;3.85;;;11.90;99.90;;;;;;6117650;23;20002;-80
2023/05/17 12:11:11;;;;;;;17.55;3.78;;;11.90;99.90;;;;;;6119589;23;20013;-80
2023/05/17 12:13:40;;;;;;;13.27;2.90;;;11.90;99.90;;;;;;6115835;23;20101;-79
2023/05/17 12:16:10;;;;;;;17.55;4.28;;;11.90;99.90;;;;;;6118401;23;20052;-80
2023/05/17 12:18:38;;;;;;;15.13;3.63;;;12.00;99.90;;;;;;6115446;23;20081;-79
2023/05/17 12:21:05;;;;;;;15.23;3.58;;;12.10;99.90;;;;;;6115449;23;20084;-80
2023/05/17 12:23:33;;;;;;;20.38;4.05;;;12.10;99.90;;;;;;6116227;23;20006;-83
2023/05/17 12:26:06;;;;;;;26.13;5.68;;;12.20;99.90;;;;;;6117796;23;20025;-84
2023/05/17 12:28:33;;;;;;;21.40;4.57;;;12.30;99.90;;;;;;6115936;23;20006;-88
2023/05/17 12:31:02;;;;;;;24.40;3.92;;;12.30;99.90;;;;;;6118796;23;20211;-80
2023/05/17 12:33:31;;;;;;;14.77;3.60;;;12.30;99.90;;;;;;6117806;23;20116;-82
2023/05/17 12:35:57;;;;;;;21.55;3.70;;;12.30;99.90;;;;;;6116037;23;19998;-80
2023/05/17 12:38:26;;;;;;;15.95;4.45;;;12.40;99.90;;;;;;6114938;23;19994;-81
2023/05/17 12:40:52;;;;;;;13.35;3.55;;;12.40;99.90;;;;;;6117129;23;20014;-79
2023/05/17 12:43:18;;;;;;;24.00;4.03;;;12.40;99.90;;;;;;6117522;23;20006;-81
2023/05/17 12:45:46;;;;;;;19.05;3.47;;;12.40;99.90;;;;;;6116282;23;20045;-80
2023/05/17 12:48:12;;;;;;;19.50;3.75;;;12.50;99.90;;;;;;6116033;23;20040;-79